Aeroporto :
LOGIN :

Iscrizione | Disclaimer

   EN    FR    IT 

 










Sommario :    VFR   VFR Marginale   IFR   IFR Intensivo   IFR Molto Intensivo
Visibilità : 
Base nubi : 
>= 8 km
>= 3000ft
5 / 8 km
1000 / 3000 ft
1500m / 5 km
500 / 1000 ft
800 / 1500m
200 / 500 ft
< 800m
< 200 ft
Simboli :   Temporali  Nebbia  Neve Forte  Precipitazioni Forti  Vento > 20 kt
SIGMETs :   Varie  Temporali  Ghiacco  Turbolenza  Onda orograficha  Ceneri Vulcaniche






- Altitudine del aeroporto : 610 ft
- Codice IATA : VXO


ESMX - Växjö Kronoberg

ULTIMO METAR :
  • 171450Z 21016KT 9999 VCSH BKN026 06/03 Q0997

METARs OBSOLETI :
  • 171420Z 22015KT 9999 -SHRA FEW003 BKN022 05/03 Q0997
  • 171350Z 21019KT 7000 -SHRA BKN025 BKN039 06/03 Q0997 REDZ
  • 171320Z 22018G32KT 9999 BKN021 BKN029 BKN038 06/03 Q0997
  • 171250Z 22021G34KT 7000 -RA BKN019 BKN027 OVC034 05/03 Q0997 RESHRA
  • 171220Z 22019KT 9999 -SHRA BKN021 BKN031 06/03 Q0996 RESHRA

TAF TAF ESMX
Valido dal 17 a 15 ore il 17 a 21 ore UTC


171430Z 1715/1721 22018G30KT 9999 BKN030
PROB40 1715/1721 4000 -RA BKN020CB



MetMap, La meteo Aeronautica in un colpo d'occhio ! - Copyright ORBIFLY Dicembre 2007 - Disclaimer

ORBIFLY MET'MAP TEAM :

Programmazione e sviluppo : Alexandra Zaïnal
Concezione : Baudouin d'Aumeries
Aiuto per la programmazione : Marc-Olivier Méhu
Supporto tecnico e logistico : Manuel Goepfert
Aiuto per la traduzione : Arnaldo La Scala

Contatto : metmap@orbifly.com




FONTI E CREDITI :

   NOAA